sensor_id;sensor_type;location;lat;lon;timestamp;P1;durP1;ratioP1;P2;durP2;ratioP2
15905;SDS011;8051;50.820;4.884;2023-11-18T00:01:24;34.97;;;31.10;;
15905;SDS011;8051;50.820;4.884;2023-11-18T00:03:53;41.50;;;32.40;;
15905;SDS011;8051;50.820;4.884;2023-11-18T00:06:20;39.70;;;30.00;;
15905;SDS011;8051;50.820;4.884;2023-11-18T00:08:49;39.80;;;28.43;;
15905;SDS011;8051;50.820;4.884;2023-11-18T00:11:17;39.57;;;29.90;;
15905;SDS011;8051;50.820;4.884;2023-11-18T00:13:44;36.93;;;29.33;;
15905;SDS011;8051;50.820;4.884;2023-11-18T00:16:12;49.67;;;31.40;;
15905;SDS011;8051;50.820;4.884;2023-11-18T00:18:41;38.43;;;30.47;;
15905;SDS011;8051;50.820;4.884;2023-11-18T00:21:09;44.33;;;29.93;;
15905;SDS011;8051;50.820;4.884;2023-11-18T00:23:37;36.10;;;30.10;;
15905;SDS011;8051;50.820;4.884;2023-11-18T00:26:06;42.67;;;29.23;;
15905;SDS011;8051;50.820;4.884;2023-11-18T00:28:34;31.70;;;28.30;;
15905;SDS011;8051;50.820;4.884;2023-11-18T00:31:01;33.67;;;29.83;;
15905;SDS011;8051;50.820;4.884;2023-11-18T00:33:29;33.80;;;27.83;;
15905;SDS011;8051;50.820;4.884;2023-11-18T00:35:57;38.07;;;28.57;;
15905;SDS011;8051;50.820;4.884;2023-11-18T00:38:26;38.80;;;28.13;;
15905;SDS011;8051;50.820;4.884;2023-11-18T00:40:53;40.53;;;30.37;;
15905;SDS011;8051;50.820;4.884;2023-11-18T00:43:22;45.63;;;29.30;;
15905;SDS011;8051;50.820;4.884;2023-11-18T00:45:50;39.27;;;30.43;;
15905;SDS011;8051;50.820;4.884;2023-11-18T00:48:18;49.87;;;30.73;;
15905;SDS011;8051;50.820;4.884;2023-11-18T00:50:45;40.77;;;30.73;;
15905;SDS011;8051;50.820;4.884;2023-11-18T00:53:12;45.67;;;30.17;;
15905;SDS011;8051;50.820;4.884;2023-11-18T00:55:40;42.97;;;30.20;;
15905;SDS011;8051;50.820;4.884;2023-11-18T00:58:07;42.40;;;29.27;;
15905;SDS011;8051;50.820;4.884;2023-11-18T01:00:36;37.93;;;29.67;;
15905;SDS011;8051;50.820;4.884;2023-11-18T01:03:04;38.90;;;29.10;;
15905;SDS011;8051;50.820;4.884;2023-11-18T01:05:31;36.13;;;28.83;;
15905;SDS011;8051;50.820;4.884;2023-11-18T01:07:59;39.40;;;28.20;;
15905;SDS011;8051;50.820;4.884;2023-11-18T01:10:27;38.00;;;27.83;;
15905;SDS011;8051;50.820;4.884;2023-11-18T01:12:55;41.23;;;28.93;;
15905;SDS011;8051;50.820;4.884;2023-11-18T01:15:23;42.43;;;27.47;;
15905;SDS011;8051;50.820;4.884;2023-11-18T01:17:52;35.73;;;27.83;;
15905;SDS011;8051;50.820;4.884;2023-11-18T01:20:19;47.90;;;27.00;;
15905;SDS011;8051;50.820;4.884;2023-11-18T01:22:47;38.40;;;28.20;;
15905;SDS011;8051;50.820;4.884;2023-11-18T01:25:15;32.27;;;25.43;;
15905;SDS011;8051;50.820;4.884;2023-11-18T01:27:44;33.80;;;25.20;;
15905;SDS011;8051;50.820;4.884;2023-11-18T01:30:13;36.03;;;25.33;;
15905;SDS011;8051;50.820;4.884;2023-11-18T01:32:41;30.47;;;24.43;;
15905;SDS011;8051;50.820;4.884;2023-11-18T01:35:10;31.47;;;24.27;;
15905;SDS011;8051;50.820;4.884;2023-11-18T01:37:38;37.10;;;25.00;;
15905;SDS011;8051;50.820;4.884;2023-11-18T01:40:06;30.63;;;25.00;;
15905;SDS011;8051;50.820;4.884;2023-11-18T01:42:37;34.33;;;25.83;;
15905;SDS011;8051;50.820;4.884;2023-11-18T01:45:05;38.47;;;27.23;;
15905;SDS011;8051;50.820;4.884;2023-11-18T01:47:36;38.03;;;26.03;;
15905;SDS011;8051;50.820;4.884;2023-11-18T01:50:05;40.63;;;26.50;;
15905;SDS011;8051;50.820;4.884;2023-11-18T01:52:36;35.97;;;25.63;;
15905;SDS011;8051;50.820;4.884;2023-11-18T01:55:04;36.63;;;25.93;;
15905;SDS011;8051;50.820;4.884;2023-11-18T01:57:32;36.00;;;25.30;;
15905;SDS011;8051;50.820;4.884;2023-11-18T02:00:00;44.10;;;24.63;;
15905;SDS011;8051;50.820;4.884;2023-11-18T02:02:32;29.07;;;24.73;;
15905;SDS011;8051;50.820;4.884;2023-11-18T02:05:01;36.23;;;24.67;;
15905;SDS011;8051;50.820;4.884;2023-11-18T02:07:31;31.13;;;24.77;;
15905;SDS011;8051;50.820;4.884;2023-11-18T02:10:02;32.27;;;23.93;;
15905;SDS011;8051;50.820;4.884;2023-11-18T02:12:36;33.73;;;24.23;;
15905;SDS011;8051;50.820;4.884;2023-11-18T02:15:09;35.43;;;25.07;;
15905;SDS011;8051;50.820;4.884;2023-11-18T02:17:38;37.90;;;24.80;;
15905;SDS011;8051;50.820;4.884;2023-11-18T02:20:07;28.90;;;22.90;;
15905;SDS011;8051;50.820;4.884;2023-11-18T02:22:41;33.00;;;23.87;;
15905;SDS011;8051;50.820;4.884;2023-11-18T02:25:10;31.10;;;24.03;;
15905;SDS011;8051;50.820;4.884;2023-11-18T02:27:45;31.70;;;22.57;;
15905;SDS011;8051;50.820;4.884;2023-11-18T02:30:14;31.27;;;23.40;;
15905;SDS011;8051;50.820;4.884;2023-11-18T02:32:43;30.37;;;22.27;;
15905;SDS011;8051;50.820;4.884;2023-11-18T02:35:16;30.93;;;22.90;;
15905;SDS011;8051;50.820;4.884;2023-11-18T02:37:49;31.03;;;21.60;;
15905;SDS011;8051;50.820;4.884;2023-11-18T02:40:26;24.13;;;21.13;;
15905;SDS011;8051;50.820;4.884;2023-11-18T02:42:58;32.00;;;22.63;;
15905;SDS011;8051;50.820;4.884;2023-11-18T02:45:27;34.53;;;24.23;;
15905;SDS011;8051;50.820;4.884;2023-11-18T02:47:57;36.50;;;23.17;;
15905;SDS011;8051;50.820;4.884;2023-11-18T02:50:25;27.60;;;22.43;;
15905;SDS011;8051;50.820;4.884;2023-11-18T02:52:53;25.87;;;22.73;;
15905;SDS011;8051;50.820;4.884;2023-11-18T02:55:21;27.37;;;22.43;;
15905;SDS011;8051;50.820;4.884;2023-11-18T02:57:49;27.27;;;21.77;;
15905;SDS011;8051;50.820;4.884;2023-11-18T03:00:19;28.87;;;21.70;;
15905;SDS011;8051;50.820;4.884;2023-11-18T03:02:48;30.20;;;21.27;;
15905;SDS011;8051;50.820;4.884;2023-11-18T03:05:17;25.57;;;20.83;;
15905;SDS011;8051;50.820;4.884;2023-11-18T03:07:44;28.63;;;20.87;;
15905;SDS011;8051;50.820;4.884;2023-11-18T03:10:14;27.93;;;21.03;;
15905;SDS011;8051;50.820;4.884;2023-11-18T03:12:47;28.57;;;21.20;;
15905;SDS011;8051;50.820;4.884;2023-11-18T03:15:14;32.43;;;23.77;;
15905;SDS011;8051;50.820;4.884;2023-11-18T03:17:45;33.50;;;22.00;;
15905;SDS011;8051;50.820;4.884;2023-11-18T03:20:13;27.23;;;21.73;;
15905;SDS011;8051;50.820;4.884;2023-11-18T03:22:42;26.90;;;21.67;;
15905;SDS011;8051;50.820;4.884;2023-11-18T03:25:10;30.80;;;21.17;;
15905;SDS011;8051;50.820;4.884;2023-11-18T03:27:38;34.73;;;22.90;;
15905;SDS011;8051;50.820;4.884;2023-11-18T03:30:06;24.13;;;20.90;;
15905;SDS011;8051;50.820;4.884;2023-11-18T03:32:34;22.90;;;20.60;;
15905;SDS011;8051;50.820;4.884;2023-11-18T03:35:04;34.73;;;20.90;;
15905;SDS011;8051;50.820;4.884;2023-11-18T03:37:33;30.70;;;20.83;;
15905;SDS011;8051;50.820;4.884;2023-11-18T03:40:04;23.47;;;19.27;;
15905;SDS011;8051;50.820;4.884;2023-11-18T03:42:32;21.10;;;18.97;;
15905;SDS011;8051;50.820;4.884;2023-11-18T03:45:02;22.10;;;18.10;;
15905;SDS011;8051;50.820;4.884;2023-11-18T03:47:30;21.20;;;18.93;;
15905;SDS011;8051;50.820;4.884;2023-11-18T03:49:59;33.67;;;19.67;;
15905;SDS011;8051;50.820;4.884;2023-11-18T03:52:28;28.17;;;18.50;;
15905;SDS011;8051;50.820;4.884;2023-11-18T03:54:55;22.13;;;17.37;;
15905;SDS011;8051;50.820;4.884;2023-11-18T03:57:23;22.80;;;17.20;;
15905;SDS011;8051;50.820;4.884;2023-11-18T03:59:50;19.53;;;17.43;;
15905;SDS011;8051;50.820;4.884;2023-11-18T04:02:18;31.43;;;17.93;;
15905;SDS011;8051;50.820;4.884;2023-11-18T04:04:45;18.53;;;16.63;;
15905;SDS011;8051;50.820;4.884;2023-11-18T04:07:13;25.40;;;16.30;;
15905;SDS011;8051;50.820;4.884;2023-11-18T04:09:42;25.30;;;16.57;;
15905;SDS011;8051;50.820;4.884;2023-11-18T04:12:10;17.67;;;15.33;;
15905;SDS011;8051;50.820;4.884;2023-11-18T04:14:37;21.53;;;16.23;;
15905;SDS011;8051;50.820;4.884;2023-11-18T04:17:04;23.27;;;15.93;;
15905;SDS011;8051;50.820;4.884;2023-11-18T04:19:32;18.60;;;15.27;;
15905;SDS011;8051;50.820;4.884;2023-11-18T04:22:01;17.43;;;14.70;;
15905;SDS011;8051;50.820;4.884;2023-11-18T04:24:29;16.87;;;15.10;;
15905;SDS011;8051;50.820;4.884;2023-11-18T04:26:58;20.40;;;14.70;;
15905;SDS011;8051;50.820;4.884;2023-11-18T04:29:26;19.07;;;15.60;;
15905;SDS011;8051;50.820;4.884;2023-11-18T04:31:54;18.07;;;15.43;;
15905;SDS011;8051;50.820;4.884;2023-11-18T04:34:21;19.20;;;14.50;;
15905;SDS011;8051;50.820;4.884;2023-11-18T04:36:50;18.27;;;15.03;;
15905;SDS011;8051;50.820;4.884;2023-11-18T04:39:17;21.93;;;14.57;;
15905;SDS011;8051;50.820;4.884;2023-11-18T04:41:46;16.60;;;14.80;;
15905;SDS011;8051;50.820;4.884;2023-11-18T04:44:15;17.77;;;14.07;;
15905;SDS011;8051;50.820;4.884;2023-11-18T04:46:43;15.77;;;13.10;;
15905;SDS011;8051;50.820;4.884;2023-11-18T04:49:10;15.30;;;12.97;;
15905;SDS011;8051;50.820;4.884;2023-11-18T04:51:38;23.23;;;13.90;;
15905;SDS011;8051;50.820;4.884;2023-11-18T04:54:05;16.27;;;13.33;;
15905;SDS011;8051;50.820;4.884;2023-11-18T04:56:33;27.10;;;13.27;;
15905;SDS011;8051;50.820;4.884;2023-11-18T04:59:02;18.80;;;12.50;;
15905;SDS011;8051;50.820;4.884;2023-11-18T05:01:31;19.37;;;12.07;;
15905;SDS011;8051;50.820;4.884;2023-11-18T05:03:59;15.47;;;12.50;;
15905;SDS011;8051;50.820;4.884;2023-11-18T05:06:26;15.37;;;13.07;;
15905;SDS011;8051;50.820;4.884;2023-11-18T05:08:54;22.03;;;12.37;;
15905;SDS011;8051;50.820;4.884;2023-11-18T05:11:21;14.93;;;12.27;;
15905;SDS011;8051;50.820;4.884;2023-11-18T05:13:49;12.97;;;11.73;;
15905;SDS011;8051;50.820;4.884;2023-11-18T05:16:16;16.77;;;12.43;;
15905;SDS011;8051;50.820;4.884;2023-11-18T05:18:45;22.60;;;12.27;;
15905;SDS011;8051;50.820;4.884;2023-11-18T05:21:13;15.80;;;12.60;;
15905;SDS011;8051;50.820;4.884;2023-11-18T05:23:40;13.30;;;11.90;;
15905;SDS011;8051;50.820;4.884;2023-11-18T05:26:08;15.90;;;12.00;;
15905;SDS011;8051;50.820;4.884;2023-11-18T05:28:35;14.67;;;11.53;;
15905;SDS011;8051;50.820;4.884;2023-11-18T05:31:03;18.57;;;11.43;;
15905;SDS011;8051;50.820;4.884;2023-11-18T05:33:31;15.67;;;11.17;;
15905;SDS011;8051;50.820;4.884;2023-11-18T05:36:02;22.93;;;13.00;;
15905;SDS011;8051;50.820;4.884;2023-11-18T05:38:31;12.20;;;11.03;;
15905;SDS011;8051;50.820;4.884;2023-11-18T05:41:00;21.13;;;11.80;;
15905;SDS011;8051;50.820;4.884;2023-11-18T05:43:29;20.50;;;11.17;;
15905;SDS011;8051;50.820;4.884;2023-11-18T05:46:02;16.53;;;11.93;;
15905;SDS011;8051;50.820;4.884;2023-11-18T05:48:45;16.93;;;12.10;;
15905;SDS011;8051;50.820;4.884;2023-11-18T05:51:18;14.50;;;12.33;;
15905;SDS011;8051;50.820;4.884;2023-11-18T05:53:47;12.83;;;11.50;;
15905;SDS011;8051;50.820;4.884;2023-11-18T05:56:14;14.60;;;12.40;;
15905;SDS011;8051;50.820;4.884;2023-11-18T05:58:43;19.33;;;12.13;;
15905;SDS011;8051;50.820;4.884;2023-11-18T06:01:11;17.37;;;10.87;;
15905;SDS011;8051;50.820;4.884;2023-11-18T06:03:39;12.77;;;11.43;;
15905;SDS011;8051;50.820;4.884;2023-11-18T06:06:09;19.40;;;13.13;;
15905;SDS011;8051;50.820;4.884;2023-11-18T06:08:39;13.57;;;11.73;;
15905;SDS011;8051;50.820;4.884;2023-11-18T06:11:08;12.07;;;10.87;;
15905;SDS011;8051;50.820;4.884;2023-11-18T06:13:39;15.80;;;12.73;;
15905;SDS011;8051;50.820;4.884;2023-11-18T06:16:09;12.50;;;11.37;;
15905;SDS011;8051;50.820;4.884;2023-11-18T06:18:41;18.00;;;12.07;;
15905;SDS011;8051;50.820;4.884;2023-11-18T06:21:11;20.33;;;12.80;;
15905;SDS011;8051;50.820;4.884;2023-11-18T06:23:41;15.60;;;11.97;;
15905;SDS011;8051;50.820;4.884;2023-11-18T06:26:10;17.30;;;11.60;;
15905;SDS011;8051;50.820;4.884;2023-11-18T06:28:38;13.90;;;12.50;;
15905;SDS011;8051;50.820;4.884;2023-11-18T06:31:06;19.00;;;11.73;;
15905;SDS011;8051;50.820;4.884;2023-11-18T06:33:38;15.70;;;11.73;;
15905;SDS011;8051;50.820;4.884;2023-11-18T06:36:08;18.73;;;12.57;;
15905;SDS011;8051;50.820;4.884;2023-11-18T06:38:37;15.63;;;12.67;;
15905;SDS011;8051;50.820;4.884;2023-11-18T06:41:07;14.43;;;13.17;;
15905;SDS011;8051;50.820;4.884;2023-11-18T06:43:37;13.63;;;12.27;;
15905;SDS011;8051;50.820;4.884;2023-11-18T06:46:17;11.43;;;10.53;;
15905;SDS011;8051;50.820;4.884;2023-11-18T06:48:47;11.83;;;10.70;;
15905;SDS011;8051;50.820;4.884;2023-11-18T06:51:15;15.17;;;12.53;;
15905;SDS011;8051;50.820;4.884;2023-11-18T06:53:43;14.90;;;12.70;;
15905;SDS011;8051;50.820;4.884;2023-11-18T06:56:12;17.60;;;13.30;;
15905;SDS011;8051;50.820;4.884;2023-11-18T06:58:41;16.97;;;12.53;;
15905;SDS011;8051;50.820;4.884;2023-11-18T07:01:09;13.00;;;11.80;;
15905;SDS011;8051;50.820;4.884;2023-11-18T07:03:40;15.20;;;13.70;;
15905;SDS011;8051;50.820;4.884;2023-11-18T07:06:08;13.63;;;12.30;;
15905;SDS011;8051;50.820;4.884;2023-11-18T07:08:35;15.17;;;12.43;;
15905;SDS011;8051;50.820;4.884;2023-11-18T07:11:03;17.07;;;12.80;;
15905;SDS011;8051;50.820;4.884;2023-11-18T07:13:32;16.73;;;14.67;;
15905;SDS011;8051;50.820;4.884;2023-11-18T07:16:00;17.37;;;15.63;;
15905;SDS011;8051;50.820;4.884;2023-11-18T07:18:28;17.13;;;15.67;;
15905;SDS011;8051;50.820;4.884;2023-11-18T07:20:56;15.73;;;14.37;;
15905;SDS011;8051;50.820;4.884;2023-11-18T07:23:25;17.20;;;15.57;;
15905;SDS011;8051;50.820;4.884;2023-11-18T07:25:53;18.63;;;16.83;;
15905;SDS011;8051;50.820;4.884;2023-11-18T07:28:21;18.97;;;17.23;;
15905;SDS011;8051;50.820;4.884;2023-11-18T07:30:50;18.63;;;17.10;;
15905;SDS011;8051;50.820;4.884;2023-11-18T07:33:19;18.13;;;16.63;;
15905;SDS011;8051;50.820;4.884;2023-11-18T07:35:47;20.00;;;18.20;;
15905;SDS011;8051;50.820;4.884;2023-11-18T07:38:14;20.10;;;18.07;;
15905;SDS011;8051;50.820;4.884;2023-11-18T07:40:43;19.57;;;18.00;;
15905;SDS011;8051;50.820;4.884;2023-11-18T07:43:11;20.23;;;18.50;;
15905;SDS011;8051;50.820;4.884;2023-11-18T07:45:38;18.90;;;17.43;;
15905;SDS011;8051;50.820;4.884;2023-11-18T07:48:08;20.43;;;18.50;;
15905;SDS011;8051;50.820;4.884;2023-11-18T07:50:37;18.63;;;16.53;;
15905;SDS011;8051;50.820;4.884;2023-11-18T07:53:06;18.47;;;16.53;;
15905;SDS011;8051;50.820;4.884;2023-11-18T07:55:34;21.40;;;18.83;;
15905;SDS011;8051;50.820;4.884;2023-11-18T07:58:04;18.97;;;17.27;;
15905;SDS011;8051;50.820;4.884;2023-11-18T08:00:35;18.97;;;17.27;;
15905;SDS011;8051;50.820;4.884;2023-11-18T08:03:04;18.57;;;16.97;;
15905;SDS011;8051;50.820;4.884;2023-11-18T08:05:37;20.90;;;18.93;;
15905;SDS011;8051;50.820;4.884;2023-11-18T08:08:06;22.30;;;19.87;;
15905;SDS011;8051;50.820;4.884;2023-11-18T08:10:34;21.13;;;19.30;;
15905;SDS011;8051;50.820;4.884;2023-11-18T08:13:03;19.90;;;18.33;;
15905;SDS011;8051;50.820;4.884;2023-11-18T08:15:32;20.30;;;18.50;;
15905;SDS011;8051;50.820;4.884;2023-11-18T08:17:59;21.00;;;18.77;;
15905;SDS011;8051;50.820;4.884;2023-11-18T08:20:28;20.90;;;18.97;;
15905;SDS011;8051;50.820;4.884;2023-11-18T08:22:57;21.50;;;19.67;;
15905;SDS011;8051;50.820;4.884;2023-11-18T08:25:24;20.63;;;18.83;;
15905;SDS011;8051;50.820;4.884;2023-11-18T08:27:52;18.03;;;16.47;;
15905;SDS011;8051;50.820;4.884;2023-11-18T08:30:19;19.33;;;17.27;;
15905;SDS011;8051;50.820;4.884;2023-11-18T08:32:49;20.33;;;17.80;;
15905;SDS011;8051;50.820;4.884;2023-11-18T08:35:16;19.27;;;17.60;;
15905;SDS011;8051;50.820;4.884;2023-11-18T08:37:44;21.83;;;17.17;;
15905;SDS011;8051;50.820;4.884;2023-11-18T08:40:14;19.37;;;16.60;;
15905;SDS011;8051;50.820;4.884;2023-11-18T08:42:44;18.30;;;16.50;;
15905;SDS011;8051;50.820;4.884;2023-11-18T08:45:15;19.13;;;17.27;;
15905;SDS011;8051;50.820;4.884;2023-11-18T08:47:44;19.53;;;17.67;;
15905;SDS011;8051;50.820;4.884;2023-11-18T08:50:12;19.83;;;16.57;;
15905;SDS011;8051;50.820;4.884;2023-11-18T08:52:41;20.73;;;17.03;;
15905;SDS011;8051;50.820;4.884;2023-11-18T08:55:13;20.83;;;16.63;;
15905;SDS011;8051;50.820;4.884;2023-11-18T08:57:46;14.77;;;13.27;;
15905;SDS011;8051;50.820;4.884;2023-11-18T09:00:25;16.27;;;14.63;;
15905;SDS011;8051;50.820;4.884;2023-11-18T09:03:22;18.03;;;16.20;;
15905;SDS011;8051;50.820;4.884;2023-11-18T09:05:54;15.63;;;14.13;;
15905;SDS011;8051;50.820;4.884;2023-11-18T09:08:23;16.33;;;15.03;;
15905;SDS011;8051;50.820;4.884;2023-11-18T09:10:53;15.67;;;14.20;;
15905;SDS011;8051;50.820;4.884;2023-11-18T09:13:22;18.33;;;15.73;;
15905;SDS011;8051;50.820;4.884;2023-11-18T09:15:52;15.07;;;13.37;;
15905;SDS011;8051;50.820;4.884;2023-11-18T09:18:21;19.33;;;16.80;;
15905;SDS011;8051;50.820;4.884;2023-11-18T09:20:50;19.60;;;16.70;;
15905;SDS011;8051;50.820;4.884;2023-11-18T09:23:18;17.00;;;15.40;;
15905;SDS011;8051;50.820;4.884;2023-11-18T09:25:45;18.47;;;16.47;;
15905;SDS011;8051;50.820;4.884;2023-11-18T09:28:15;21.37;;;15.90;;
15905;SDS011;8051;50.820;4.884;2023-11-18T09:30:43;21.93;;;15.70;;
15905;SDS011;8051;50.820;4.884;2023-11-18T09:33:19;28.03;;;17.37;;
15905;SDS011;8051;50.820;4.884;2023-11-18T09:35:54;29.13;;;16.77;;
15905;SDS011;8051;50.820;4.884;2023-11-18T09:38:25;17.77;;;15.87;;
15905;SDS011;8051;50.820;4.884;2023-11-18T09:40:56;22.10;;;16.27;;
15905;SDS011;8051;50.820;4.884;2023-11-18T09:43:30;17.97;;;13.70;;
15905;SDS011;8051;50.820;4.884;2023-11-18T09:46:03;16.83;;;15.17;;
15905;SDS011;8051;50.820;4.884;2023-11-18T09:48:39;25.33;;;17.13;;
15905;SDS011;8051;50.820;4.884;2023-11-18T09:51:13;16.40;;;14.90;;
15905;SDS011;8051;50.820;4.884;2023-11-18T09:53:46;16.87;;;15.07;;
15905;SDS011;8051;50.820;4.884;2023-11-18T09:56:18;16.97;;;15.47;;
15905;SDS011;8051;50.820;4.884;2023-11-18T09:59:01;21.77;;;16.50;;
15905;SDS011;8051;50.820;4.884;2023-11-18T10:01:34;21.27;;;16.50;;
15905;SDS011;8051;50.820;4.884;2023-11-18T10:04:08;21.67;;;16.53;;
15905;SDS011;8051;50.820;4.884;2023-11-18T10:06:36;17.97;;;16.07;;
15905;SDS011;8051;50.820;4.884;2023-11-18T10:09:06;22.13;;;16.57;;
15905;SDS011;8051;50.820;4.884;2023-11-18T10:11:42;17.97;;;14.83;;
15905;SDS011;8051;50.820;4.884;2023-11-18T10:14:13;18.67;;;15.37;;
15905;SDS011;8051;50.820;4.884;2023-11-18T10:16:44;17.23;;;12.73;;
15905;SDS011;8051;50.820;4.884;2023-11-18T10:19:19;18.63;;;15.03;;
15905;SDS011;8051;50.820;4.884;2023-11-18T10:21:46;16.60;;;15.17;;
15905;SDS011;8051;50.820;4.884;2023-11-18T10:24:15;16.07;;;13.60;;
15905;SDS011;8051;50.820;4.884;2023-11-18T10:26:44;16.23;;;14.60;;
15905;SDS011;8051;50.820;4.884;2023-11-18T10:29:22;15.47;;;14.13;;
15905;SDS011;8051;50.820;4.884;2023-11-18T10:32:01;21.47;;;14.20;;
15905;SDS011;8051;50.820;4.884;2023-11-18T10:34:41;22.50;;;14.73;;
15905;SDS011;8051;50.820;4.884;2023-11-18T10:37:09;16.87;;;14.20;;
15905;SDS011;8051;50.820;4.884;2023-11-18T10:39:37;16.50;;;13.03;;
15905;SDS011;8051;50.820;4.884;2023-11-18T10:42:04;16.27;;;13.97;;
15905;SDS011;8051;50.820;4.884;2023-11-18T10:44:34;16.23;;;14.47;;
15905;SDS011;8051;50.820;4.884;2023-11-18T10:47:02;26.43;;;15.20;;
15905;SDS011;8051;50.820;4.884;2023-11-18T10:49:30;15.70;;;14.33;;
15905;SDS011;8051;50.820;4.884;2023-11-18T10:52:02;14.23;;;12.73;;
15905;SDS011;8051;50.820;4.884;2023-11-18T10:54:33;15.33;;;12.70;;
15905;SDS011;8051;50.820;4.884;2023-11-18T10:57:03;23.43;;;13.80;;
15905;SDS011;8051;50.820;4.884;2023-11-18T10:59:35;13.20;;;11.90;;
15905;SDS011;8051;50.820;4.884;2023-11-18T11:02:22;12.07;;;10.93;;
15905;SDS011;8051;50.820;4.884;2023-11-18T11:04:50;17.63;;;12.17;;
15905;SDS011;8051;50.820;4.884;2023-11-18T11:07:18;13.30;;;12.20;;
15905;SDS011;8051;50.820;4.884;2023-11-18T11:09:49;15.17;;;10.77;;
15905;SDS011;8051;50.820;4.884;2023-11-18T11:12:21;12.80;;;11.50;;
15905;SDS011;8051;50.820;4.884;2023-11-18T11:14:56;12.50;;;11.27;;
15905;SDS011;8051;50.820;4.884;2023-11-18T11:17:29;14.37;;;11.30;;
15905;SDS011;8051;50.820;4.884;2023-11-18T11:20:03;11.37;;;10.27;;
15905;SDS011;8051;50.820;4.884;2023-11-18T11:22:46;12.37;;;11.20;;
15905;SDS011;8051;50.820;4.884;2023-11-18T11:25:34;11.07;;;10.13;;
15905;SDS011;8051;50.820;4.884;2023-11-18T11:28:10;11.37;;;10.30;;
15905;SDS011;8051;50.820;4.884;2023-11-18T11:30:44;10.07;;;9.37;;
15905;SDS011;8051;50.820;4.884;2023-11-18T11:33:16;12.30;;;9.83;;
15905;SDS011;8051;50.820;4.884;2023-11-18T11:35:49;10.67;;;9.67;;
15905;SDS011;8051;50.820;4.884;2023-11-18T11:38:22;11.30;;;10.23;;
15905;SDS011;8051;50.820;4.884;2023-11-18T11:40:52;11.50;;;10.40;;
15905;SDS011;8051;50.820;4.884;2023-11-18T11:43:23;10.53;;;9.73;;
15905;SDS011;8051;50.820;4.884;2023-11-18T11:45:54;11.10;;;10.10;;
15905;SDS011;8051;50.820;4.884;2023-11-18T11:48:22;10.47;;;9.27;;
15905;SDS011;8051;50.820;4.884;2023-11-18T11:51:07;10.03;;;9.20;;
15905;SDS011;8051;50.820;4.884;2023-11-18T11:53:46;9.83;;;8.17;;
15905;SDS011;8051;50.820;4.884;2023-11-18T11:56:18;7.80;;;7.20;;
15905;SDS011;8051;50.820;4.884;2023-11-18T11:58:49;9.50;;;7.50;;
15905;SDS011;8051;50.820;4.884;2023-11-18T12:01:24;9.37;;;8.57;;
15905;SDS011;8051;50.820;4.884;2023-11-18T12:03:57;9.37;;;8.57;;
15905;SDS011;8051;50.820;4.884;2023-11-18T12:06:31;8.93;;;7.80;;
15905;SDS011;8051;50.820;4.884;2023-11-18T12:09:00;7.77;;;7.07;;
15905;SDS011;8051;50.820;4.884;2023-11-18T12:11:32;9.33;;;8.30;;
15905;SDS011;8051;50.820;4.884;2023-11-18T12:14:14;11.37;;;8.57;;
15905;SDS011;8051;50.820;4.884;2023-11-18T12:17:04;9.17;;;8.20;;
15905;SDS011;8051;50.820;4.884;2023-11-18T12:19:35;9.00;;;8.23;;
15905;SDS011;8051;50.820;4.884;2023-11-18T12:22:12;8.30;;;7.70;;
15905;SDS011;8051;50.820;4.884;2023-11-18T12:24:44;8.77;;;7.97;;
15905;SDS011;8051;50.820;4.884;2023-11-18T12:33:17;8.30;;;7.50;;
15905;SDS011;8051;50.820;4.884;2023-11-18T12:42:20;8.67;;;6.50;;
15905;SDS011;8051;50.820;4.884;2023-11-18T12:45:18;7.17;;;6.77;;
15905;SDS011;8051;50.820;4.884;2023-11-18T12:48:12;7.23;;;6.80;;
15905;SDS011;8051;50.820;4.884;2023-11-18T12:50:41;8.13;;;7.53;;
15905;SDS011;8051;50.820;4.884;2023-11-18T12:53:11;6.37;;;5.90;;
15905;SDS011;8051;50.820;4.884;2023-11-18T12:55:40;7.47;;;7.07;;
15905;SDS011;8051;50.820;4.884;2023-11-18T12:58:08;7.03;;;6.50;;
15905;SDS011;8051;50.820;4.884;2023-11-18T13:00:39;6.30;;;6.00;;
15905;SDS011;8051;50.820;4.884;2023-11-18T13:03:10;7.60;;;7.20;;
15905;SDS011;8051;50.820;4.884;2023-11-18T13:05:40;7.57;;;7.23;;
15905;SDS011;8051;50.820;4.884;2023-11-18T13:08:08;6.53;;;6.13;;
15905;SDS011;8051;50.820;4.884;2023-11-18T13:10:36;7.10;;;6.53;;
15905;SDS011;8051;50.820;4.884;2023-11-18T13:13:04;6.40;;;5.73;;
15905;SDS011;8051;50.820;4.884;2023-11-18T13:15:34;6.10;;;5.60;;
15905;SDS011;8051;50.820;4.884;2023-11-18T13:18:02;7.70;;;7.30;;
15905;SDS011;8051;50.820;4.884;2023-11-18T13:20:33;6.90;;;6.30;;
15905;SDS011;8051;50.820;4.884;2023-11-18T13:23:01;6.97;;;6.50;;
15905;SDS011;8051;50.820;4.884;2023-11-18T13:25:34;6.63;;;6.23;;
15905;SDS011;8051;50.820;4.884;2023-11-18T13:28:04;6.77;;;6.47;;
15905;SDS011;8051;50.820;4.884;2023-11-18T13:30:32;6.53;;;6.23;;
15905;SDS011;8051;50.820;4.884;2023-11-18T13:33:00;6.80;;;6.23;;
15905;SDS011;8051;50.820;4.884;2023-11-18T13:35:28;6.30;;;6.00;;
15905;SDS011;8051;50.820;4.884;2023-11-18T13:37:57;6.20;;;5.90;;
15905;SDS011;8051;50.820;4.884;2023-11-18T13:40:25;5.63;;;5.43;;
15905;SDS011;8051;50.820;4.884;2023-11-18T13:43:01;7.13;;;6.53;;
15905;SDS011;8051;50.820;4.884;2023-11-18T13:45:30;5.80;;;5.60;;
15905;SDS011;8051;50.820;4.884;2023-11-18T13:47:59;5.90;;;5.60;;
15905;SDS011;8051;50.820;4.884;2023-11-18T13:50:27;6.10;;;5.70;;
15905;SDS011;8051;50.820;4.884;2023-11-18T13:52:55;5.47;;;5.27;;
15905;SDS011;8051;50.820;4.884;2023-11-18T13:55:25;5.93;;;5.63;;
15905;SDS011;8051;50.820;4.884;2023-11-18T13:57:53;4.70;;;4.40;;
15905;SDS011;8051;50.820;4.884;2023-11-18T14:00:23;5.20;;;4.90;;
15905;SDS011;8051;50.820;4.884;2023-11-18T14:02:53;5.87;;;5.67;;
15905;SDS011;8051;50.820;4.884;2023-11-18T14:05:22;4.90;;;4.70;;
15905;SDS011;8051;50.820;4.884;2023-11-18T14:07:51;4.83;;;4.63;;
15905;SDS011;8051;50.820;4.884;2023-11-18T14:10:22;6.23;;;5.73;;
15905;SDS011;8051;50.820;4.884;2023-11-18T14:12:59;4.80;;;4.57;;
15905;SDS011;8051;50.820;4.884;2023-11-18T14:15:30;6.20;;;5.90;;
15905;SDS011;8051;50.820;4.884;2023-11-18T14:18:00;5.60;;;5.30;;
15905;SDS011;8051;50.820;4.884;2023-11-18T14:20:28;5.80;;;5.50;;
15905;SDS011;8051;50.820;4.884;2023-11-18T14:22:56;6.60;;;6.27;;
15905;SDS011;8051;50.820;4.884;2023-11-18T14:25:26;5.60;;;5.40;;
15905;SDS011;8051;50.820;4.884;2023-11-18T14:27:53;6.57;;;6.23;;
15905;SDS011;8051;50.820;4.884;2023-11-18T14:30:21;5.90;;;5.70;;
15905;SDS011;8051;50.820;4.884;2023-11-18T14:32:50;5.13;;;4.83;;
15905;SDS011;8051;50.820;4.884;2023-11-18T14:35:17;6.47;;;6.17;;
15905;SDS011;8051;50.820;4.884;2023-11-18T14:37:45;6.20;;;6.00;;
15905;SDS011;8051;50.820;4.884;2023-11-18T14:40:13;6.03;;;5.73;;
15905;SDS011;8051;50.820;4.884;2023-11-18T14:42:42;5.53;;;5.33;;
15905;SDS011;8051;50.820;4.884;2023-11-18T14:45:13;5.90;;;5.50;;
15905;SDS011;8051;50.820;4.884;2023-11-18T14:47:41;4.60;;;4.40;;
15905;SDS011;8051;50.820;4.884;2023-11-18T14:50:11;4.07;;;3.93;;
15905;SDS011;8051;50.820;4.884;2023-11-18T14:52:43;5.50;;;5.10;;
15905;SDS011;8051;50.820;4.884;2023-11-18T14:55:11;5.07;;;4.87;;
15905;SDS011;8051;50.820;4.884;2023-11-18T14:57:39;5.30;;;5.10;;
15905;SDS011;8051;50.820;4.884;2023-11-18T15:00:11;4.50;;;4.30;;
15905;SDS011;8051;50.820;4.884;2023-11-18T15:02:45;4.20;;;4.00;;
15905;SDS011;8051;50.820;4.884;2023-11-18T15:05:14;3.73;;;3.63;;
15905;SDS011;8051;50.820;4.884;2023-11-18T15:07:44;4.07;;;3.83;;
15905;SDS011;8051;50.820;4.884;2023-11-18T15:10:13;4.90;;;4.70;;